KBTM

Bert Mooney Airport

Butte, Montana, USA
METAR KBTM 231053Z AUTO 00000KT 10SM FEW050 M12/M14 A3019 RMK AO2 SLP288 T11221144
Observed Flight Rules
Jan-23 @ 10:53 UTC (an hour ago) Visual Flight Rules
Wind Visibility Clouds
Calm 10 miles
  • Few at 5,000' AGL
Temperatures Readings
Current -12°C / 10°F
Dewpoint -14°C / 7°F
Humidity 85%
Altimeter 30.19" Hg
Pressure 1028.8 hPa
Elevation 1688
METAR KBTM 231053Z AUTO 00000KT 10SM FEW050 M12/M14 A3019 RMK AO2 SLP288 T11221144
Observed Flight Rules
Jan-23 @ 10:53 UTC
(an hour ago)
VFR
Wind Visibility
Calm 10 miles
Clouds
  • Few at 5,000' AGL
Temperature Dewpoint
-12°C / 10°F -14°C / 7°F
Humidity Altimeter Pressure
85% 30.19" Hg 1028.8 hPa